sensor_id;sensor_type;location;lat;lon;timestamp;P1;durP1;ratioP1;P2;durP2;ratioP2
65469;SDS011;52067;50.710;14.492;2023-05-24T00:02:06;16.52;;;5.63;;
65469;SDS011;52067;50.710;14.492;2023-05-24T00:04:32;18.75;;;6.13;;
65469;SDS011;52067;50.710;14.492;2023-05-24T00:06:57;13.05;;;5.82;;
65469;SDS011;52067;50.710;14.492;2023-05-24T00:09:27;16.15;;;6.40;;
65469;SDS011;52067;50.710;14.492;2023-05-24T00:11:55;17.10;;;6.50;;
65469;SDS011;52067;50.710;14.492;2023-05-24T00:14:21;16.50;;;5.85;;
65469;SDS011;52067;50.710;14.492;2023-05-24T00:16:46;18.80;;;5.78;;
65469;SDS011;52067;50.710;14.492;2023-05-24T00:19:12;17.92;;;5.78;;
65469;SDS011;52067;50.710;14.492;2023-05-24T00:21:42;18.42;;;5.90;;
65469;SDS011;52067;50.710;14.492;2023-05-24T00:24:10;17.48;;;5.82;;
65469;SDS011;52067;50.710;14.492;2023-05-24T00:26:36;13.85;;;5.72;;
65469;SDS011;52067;50.710;14.492;2023-05-24T00:29:01;22.50;;;7.10;;
65469;SDS011;52067;50.710;14.492;2023-05-24T00:31:27;18.02;;;6.53;;
65469;SDS011;52067;50.710;14.492;2023-05-24T00:33:52;16.08;;;5.55;;
65469;SDS011;52067;50.710;14.492;2023-05-24T00:36:18;20.23;;;5.40;;
65469;SDS011;52067;50.710;14.492;2023-05-24T00:38:43;18.75;;;5.78;;
65469;SDS011;52067;50.710;14.492;2023-05-24T00:41:08;14.85;;;5.10;;
65469;SDS011;52067;50.710;14.492;2023-05-24T00:43:35;16.83;;;5.18;;
65469;SDS011;52067;50.710;14.492;2023-05-24T00:46:15;15.63;;;5.05;;
65469;SDS011;52067;50.710;14.492;2023-05-24T00:48:46;14.07;;;5.13;;
65469;SDS011;52067;50.710;14.492;2023-05-24T00:51:13;13.93;;;5.10;;
65469;SDS011;52067;50.710;14.492;2023-05-24T00:53:39;12.48;;;4.68;;
65469;SDS011;52067;50.710;14.492;2023-05-24T00:56:06;16.13;;;5.00;;
65469;SDS011;52067;50.710;14.492;2023-05-24T00:58:32;12.57;;;4.70;;
65469;SDS011;52067;50.710;14.492;2023-05-24T01:00:58;12.38;;;4.47;;
65469;SDS011;52067;50.710;14.492;2023-05-24T01:03:25;12.50;;;4.13;;
65469;SDS011;52067;50.710;14.492;2023-05-24T01:05:53;15.23;;;4.60;;
65469;SDS011;52067;50.710;14.492;2023-05-24T01:10:55;19.55;;;4.28;;
65469;SDS011;52067;50.710;14.492;2023-05-24T01:18:56;17.40;;;4.72;;
65469;SDS011;52067;50.710;14.492;2023-05-24T01:24:40;16.40;;;4.68;;
65469;SDS011;52067;50.710;14.492;2023-05-24T01:27:14;19.00;;;4.60;;
65469;SDS011;52067;50.710;14.492;2023-05-24T01:29:40;12.45;;;4.00;;
65469;SDS011;52067;50.710;14.492;2023-05-24T01:32:06;13.55;;;3.95;;
65469;SDS011;52067;50.710;14.492;2023-05-24T01:34:32;14.38;;;4.10;;
65469;SDS011;52067;50.710;14.492;2023-05-24T01:36:58;10.90;;;3.97;;
65469;SDS011;52067;50.710;14.492;2023-05-24T01:39:24;11.48;;;3.83;;
65469;SDS011;52067;50.710;14.492;2023-05-24T01:44:36;13.55;;;3.67;;
65469;SDS011;52067;50.710;14.492;2023-05-24T01:49:33;12.93;;;4.07;;
65469;SDS011;52067;50.710;14.492;2023-05-24T01:52:14;13.88;;;4.13;;
65469;SDS011;52067;50.710;14.492;2023-05-24T01:54:44;13.25;;;3.88;;
65469;SDS011;52067;50.710;14.492;2023-05-24T01:57:14;11.25;;;3.67;;
65469;SDS011;52067;50.710;14.492;2023-05-24T01:59:42;16.77;;;3.30;;
65469;SDS011;52067;50.710;14.492;2023-05-24T02:02:09;13.13;;;3.75;;
65469;SDS011;52067;50.710;14.492;2023-05-24T02:04:36;17.52;;;3.97;;
65469;SDS011;52067;50.710;14.492;2023-05-24T02:07:01;14.60;;;4.40;;
65469;SDS011;52067;50.710;14.492;2023-05-24T02:09:27;12.77;;;3.83;;
65469;SDS011;52067;50.710;14.492;2023-05-24T02:11:52;20.48;;;3.90;;
65469;SDS011;52067;50.710;14.492;2023-05-24T02:14:18;15.18;;;4.15;;
65469;SDS011;52067;50.710;14.492;2023-05-24T02:16:43;10.95;;;3.95;;
65469;SDS011;52067;50.710;14.492;2023-05-24T02:19:10;12.57;;;4.00;;
65469;SDS011;52067;50.710;14.492;2023-05-24T02:21:38;18.20;;;4.35;;
65469;SDS011;52067;50.710;14.492;2023-05-24T02:24:05;13.10;;;4.53;;
65469;SDS011;52067;50.710;14.492;2023-05-24T02:26:31;13.75;;;4.40;;
65469;SDS011;52067;50.710;14.492;2023-05-24T02:28:57;16.27;;;3.92;;
65469;SDS011;52067;50.710;14.492;2023-05-24T02:31:22;10.93;;;4.00;;
65469;SDS011;52067;50.710;14.492;2023-05-24T02:33:49;15.50;;;4.35;;
65469;SDS011;52067;50.710;14.492;2023-05-24T02:36:15;15.18;;;4.05;;
65469;SDS011;52067;50.710;14.492;2023-05-24T02:38:40;18.83;;;3.90;;
65469;SDS011;52067;50.710;14.492;2023-05-24T02:41:06;13.38;;;3.80;;
65469;SDS011;52067;50.710;14.492;2023-05-24T02:43:33;11.55;;;3.92;;
65469;SDS011;52067;50.710;14.492;2023-05-24T02:45:58;18.35;;;3.58;;
65469;SDS011;52067;50.710;14.492;2023-05-24T02:48:23;20.90;;;4.10;;
65469;SDS011;52067;50.710;14.492;2023-05-24T02:50:49;23.00;;;4.20;;
65469;SDS011;52067;50.710;14.492;2023-05-24T02:53:15;19.80;;;3.47;;
65469;SDS011;52067;50.710;14.492;2023-05-24T02:55:40;14.55;;;4.45;;
65469;SDS011;52067;50.710;14.492;2023-05-24T02:58:08;16.33;;;3.97;;
65469;SDS011;52067;50.710;14.492;2023-05-24T03:00:33;11.13;;;3.65;;
65469;SDS011;52067;50.710;14.492;2023-05-24T03:02:58;16.70;;;3.53;;
65469;SDS011;52067;50.710;14.492;2023-05-24T03:05:27;12.15;;;3.50;;
65469;SDS011;52067;50.710;14.492;2023-05-24T03:07:52;12.90;;;3.20;;
65469;SDS011;52067;50.710;14.492;2023-05-24T03:10:17;15.52;;;4.65;;
65469;SDS011;52067;50.710;14.492;2023-05-24T03:12:43;16.30;;;3.78;;
65469;SDS011;52067;50.710;14.492;2023-05-24T03:15:08;19.20;;;4.32;;
65469;SDS011;52067;50.710;14.492;2023-05-24T03:17:34;16.17;;;3.97;;
65469;SDS011;52067;50.710;14.492;2023-05-24T03:19:59;15.20;;;3.63;;
65469;SDS011;52067;50.710;14.492;2023-05-24T03:22:25;18.83;;;3.75;;
65469;SDS011;52067;50.710;14.492;2023-05-24T03:24:50;20.05;;;4.63;;
65469;SDS011;52067;50.710;14.492;2023-05-24T03:27:16;14.82;;;3.78;;
65469;SDS011;52067;50.710;14.492;2023-05-24T03:29:41;13.02;;;3.83;;
65469;SDS011;52067;50.710;14.492;2023-05-24T03:32:06;10.85;;;3.58;;
65469;SDS011;52067;50.710;14.492;2023-05-24T03:34:32;19.80;;;3.92;;
65469;SDS011;52067;50.710;14.492;2023-05-24T03:36:57;18.80;;;4.82;;
65469;SDS011;52067;50.710;14.492;2023-05-24T03:39:22;15.43;;;4.25;;
65469;SDS011;52067;50.710;14.492;2023-05-24T03:41:48;11.75;;;3.95;;
65469;SDS011;52067;50.710;14.492;2023-05-24T03:44:13;15.40;;;4.05;;
65469;SDS011;52067;50.710;14.492;2023-05-24T03:46:39;10.90;;;3.42;;
65469;SDS011;52067;50.710;14.492;2023-05-24T03:49:05;19.95;;;4.65;;
65469;SDS011;52067;50.710;14.492;2023-05-24T03:51:31;10.68;;;3.45;;
65469;SDS011;52067;50.710;14.492;2023-05-24T03:53:56;16.88;;;4.03;;
65469;SDS011;52067;50.710;14.492;2023-05-24T03:56:23;14.35;;;3.60;;
65469;SDS011;52067;50.710;14.492;2023-05-24T03:58:50;14.05;;;3.60;;
65469;SDS011;52067;50.710;14.492;2023-05-24T04:01:16;13.20;;;3.45;;
65469;SDS011;52067;50.710;14.492;2023-05-24T04:03:42;15.55;;;3.47;;
65469;SDS011;52067;50.710;14.492;2023-05-24T04:06:10;19.23;;;3.83;;
65469;SDS011;52067;50.710;14.492;2023-05-24T04:08:38;13.32;;;3.63;;
65469;SDS011;52067;50.710;14.492;2023-05-24T04:11:04;16.42;;;2.80;;
65469;SDS011;52067;50.710;14.492;2023-05-24T04:13:29;11.20;;;3.22;;
65469;SDS011;52067;50.710;14.492;2023-05-24T04:15:55;17.27;;;4.00;;
65469;SDS011;52067;50.710;14.492;2023-05-24T04:18:20;15.90;;;3.55;;
65469;SDS011;52067;50.710;14.492;2023-05-24T04:20:46;15.30;;;4.43;;
65469;SDS011;52067;50.710;14.492;2023-05-24T04:23:11;15.68;;;3.95;;
65469;SDS011;52067;50.710;14.492;2023-05-24T04:25:37;19.92;;;4.10;;
65469;SDS011;52067;50.710;14.492;2023-05-24T04:28:02;10.77;;;3.55;;
65469;SDS011;52067;50.710;14.492;2023-05-24T04:30:28;14.75;;;3.75;;
65469;SDS011;52067;50.710;14.492;2023-05-24T04:32:54;19.15;;;3.30;;
65469;SDS011;52067;50.710;14.492;2023-05-24T04:35:21;10.02;;;3.20;;
65469;SDS011;52067;50.710;14.492;2023-05-24T04:37:46;16.00;;;3.78;;
65469;SDS011;52067;50.710;14.492;2023-05-24T04:40:13;13.60;;;3.10;;
65469;SDS011;52067;50.710;14.492;2023-05-24T04:42:40;13.68;;;3.15;;
65469;SDS011;52067;50.710;14.492;2023-05-24T04:45:06;11.68;;;3.50;;
65469;SDS011;52067;50.710;14.492;2023-05-24T04:47:32;16.27;;;3.60;;
65469;SDS011;52067;50.710;14.492;2023-05-24T04:49:57;18.98;;;3.33;;
65469;SDS011;52067;50.710;14.492;2023-05-24T04:52:22;14.85;;;3.15;;
65469;SDS011;52067;50.710;14.492;2023-05-24T04:54:48;13.43;;;3.58;;
65469;SDS011;52067;50.710;14.492;2023-05-24T04:57:15;15.57;;;3.15;;
65469;SDS011;52067;50.710;14.492;2023-05-24T04:59:40;14.55;;;3.60;;
65469;SDS011;52067;50.710;14.492;2023-05-24T05:02:06;11.70;;;3.35;;
65469;SDS011;52067;50.710;14.492;2023-05-24T05:04:31;17.58;;;3.35;;
65469;SDS011;52067;50.710;14.492;2023-05-24T05:06:57;15.70;;;3.88;;
65469;SDS011;52067;50.710;14.492;2023-05-24T05:09:22;15.13;;;3.47;;
65469;SDS011;52067;50.710;14.492;2023-05-24T05:11:48;13.30;;;5.50;;
65469;SDS011;52067;50.710;14.492;2023-05-24T05:14:14;13.63;;;3.40;;
65469;SDS011;52067;50.710;14.492;2023-05-24T05:16:40;12.95;;;2.85;;
65469;SDS011;52067;50.710;14.492;2023-05-24T05:19:06;11.70;;;3.50;;
65469;SDS011;52067;50.710;14.492;2023-05-24T05:21:32;16.30;;;3.33;;
65469;SDS011;52067;50.710;14.492;2023-05-24T05:23:58;11.80;;;3.47;;
65469;SDS011;52067;50.710;14.492;2023-05-24T05:26:25;17.55;;;3.45;;
65469;SDS011;52067;50.710;14.492;2023-05-24T05:28:53;7.45;;;3.13;;
65469;SDS011;52067;50.710;14.492;2023-05-24T05:31:19;14.32;;;3.03;;
65469;SDS011;52067;50.710;14.492;2023-05-24T05:33:45;18.75;;;3.35;;
65469;SDS011;52067;50.710;14.492;2023-05-24T05:36:11;23.25;;;3.78;;
65469;SDS011;52067;50.710;14.492;2023-05-24T05:38:36;14.07;;;3.33;;
65469;SDS011;52067;50.710;14.492;2023-05-24T05:41:01;9.15;;;2.78;;
65469;SDS011;52067;50.710;14.492;2023-05-24T05:43:27;12.07;;;3.10;;
65469;SDS011;52067;50.710;14.492;2023-05-24T05:45:53;12.07;;;3.20;;
65469;SDS011;52067;50.710;14.492;2023-05-24T05:48:19;11.43;;;3.05;;
65469;SDS011;52067;50.710;14.492;2023-05-24T05:50:44;8.05;;;2.70;;
65469;SDS011;52067;50.710;14.492;2023-05-24T05:53:10;15.18;;;3.50;;
65469;SDS011;52067;50.710;14.492;2023-05-24T05:55:35;11.02;;;3.53;;
65469;SDS011;52067;50.710;14.492;2023-05-24T05:58:01;16.35;;;3.42;;
65469;SDS011;52067;50.710;14.492;2023-05-24T06:00:26;17.08;;;3.50;;
65469;SDS011;52067;50.710;14.492;2023-05-24T06:02:51;9.60;;;2.85;;
65469;SDS011;52067;50.710;14.492;2023-05-24T06:05:18;12.32;;;2.97;;
65469;SDS011;52067;50.710;14.492;2023-05-24T06:07:43;15.50;;;3.00;;
65469;SDS011;52067;50.710;14.492;2023-05-24T06:10:09;10.30;;;3.20;;
65469;SDS011;52067;50.710;14.492;2023-05-24T06:12:35;18.42;;;3.70;;
65469;SDS011;52067;50.710;14.492;2023-05-24T06:15:02;14.93;;;3.55;;
65469;SDS011;52067;50.710;14.492;2023-05-24T06:17:30;11.98;;;3.25;;
65469;SDS011;52067;50.710;14.492;2023-05-24T06:19:55;12.90;;;2.97;;
65469;SDS011;52067;50.710;14.492;2023-05-24T06:22:21;10.30;;;3.03;;
65469;SDS011;52067;50.710;14.492;2023-05-24T06:24:46;15.35;;;3.05;;
65469;SDS011;52067;50.710;14.492;2023-05-24T06:27:13;11.82;;;3.30;;
65469;SDS011;52067;50.710;14.492;2023-05-24T06:29:38;17.88;;;3.80;;
65469;SDS011;52067;50.710;14.492;2023-05-24T06:32:04;12.20;;;3.55;;
65469;SDS011;52067;50.710;14.492;2023-05-24T06:34:30;14.10;;;5.00;;
65469;SDS011;52067;50.710;14.492;2023-05-24T06:36:55;15.20;;;5.32;;
65469;SDS011;52067;50.710;14.492;2023-05-24T06:39:22;10.85;;;3.42;;
65469;SDS011;52067;50.710;14.492;2023-05-24T06:41:49;10.27;;;3.30;;
65469;SDS011;52067;50.710;14.492;2023-05-24T06:44:15;12.25;;;3.10;;
65469;SDS011;52067;50.710;14.492;2023-05-24T06:46:40;16.83;;;3.30;;
65469;SDS011;52067;50.710;14.492;2023-05-24T06:49:06;15.30;;;3.42;;
65469;SDS011;52067;50.710;14.492;2023-05-24T06:51:32;16.25;;;3.28;;
65469;SDS011;52067;50.710;14.492;2023-05-24T06:53:58;13.40;;;3.15;;
65469;SDS011;52067;50.710;14.492;2023-05-24T06:56:23;14.48;;;3.47;;
65469;SDS011;52067;50.710;14.492;2023-05-24T06:58:49;10.38;;;2.90;;
65469;SDS011;52067;50.710;14.492;2023-05-24T07:01:15;11.32;;;3.55;;
65469;SDS011;52067;50.710;14.492;2023-05-24T07:03:40;15.73;;;3.05;;
65469;SDS011;52067;50.710;14.492;2023-05-24T07:06:06;13.93;;;3.55;;
65469;SDS011;52067;50.710;14.492;2023-05-24T07:08:34;12.73;;;3.15;;
65469;SDS011;52067;50.710;14.492;2023-05-24T07:10:59;17.15;;;3.50;;
65469;SDS011;52067;50.710;14.492;2023-05-24T07:13:25;14.00;;;3.10;;
65469;SDS011;52067;50.710;14.492;2023-05-24T07:15:50;10.68;;;2.90;;
65469;SDS011;52067;50.710;14.492;2023-05-24T07:18:15;16.88;;;3.20;;
65469;SDS011;52067;50.710;14.492;2023-05-24T07:20:41;16.30;;;3.67;;
65469;SDS011;52067;50.710;14.492;2023-05-24T07:23:06;12.75;;;2.80;;
65469;SDS011;52067;50.710;14.492;2023-05-24T07:25:32;10.80;;;2.72;;
65469;SDS011;52067;50.710;14.492;2023-05-24T07:27:58;11.98;;;2.92;;
65469;SDS011;52067;50.710;14.492;2023-05-24T07:30:26;10.10;;;2.97;;
65469;SDS011;52067;50.710;14.492;2023-05-24T07:32:51;13.93;;;3.33;;
65469;SDS011;52067;50.710;14.492;2023-05-24T07:35:17;11.75;;;2.83;;
65469;SDS011;52067;50.710;14.492;2023-05-24T07:37:42;11.60;;;3.42;;
65469;SDS011;52067;50.710;14.492;2023-05-24T07:40:08;15.60;;;3.38;;
65469;SDS011;52067;50.710;14.492;2023-05-24T07:42:36;17.88;;;3.10;;
65469;SDS011;52067;50.710;14.492;2023-05-24T07:45:05;12.27;;;2.97;;
65469;SDS011;52067;50.710;14.492;2023-05-24T07:47:31;12.77;;;3.65;;
65469;SDS011;52067;50.710;14.492;2023-05-24T07:49:56;17.30;;;3.03;;
65469;SDS011;52067;50.710;14.492;2023-05-24T07:52:22;11.85;;;2.83;;
65469;SDS011;52067;50.710;14.492;2023-05-24T07:54:48;10.70;;;3.30;;
65469;SDS011;52067;50.710;14.492;2023-05-24T07:57:13;10.65;;;2.97;;
65469;SDS011;52067;50.710;14.492;2023-05-24T07:59:39;11.73;;;2.80;;
65469;SDS011;52067;50.710;14.492;2023-05-24T08:02:05;14.35;;;2.97;;
65469;SDS011;52067;50.710;14.492;2023-05-24T08:04:31;14.27;;;2.95;;
65469;SDS011;52067;50.710;14.492;2023-05-24T08:06:57;13.45;;;3.30;;
65469;SDS011;52067;50.710;14.492;2023-05-24T08:09:25;10.30;;;2.63;;
65469;SDS011;52067;50.710;14.492;2023-05-24T08:11:53;16.33;;;3.70;;
65469;SDS011;52067;50.710;14.492;2023-05-24T08:14:19;17.33;;;3.63;;
65469;SDS011;52067;50.710;14.492;2023-05-24T08:16:44;10.63;;;2.95;;
65469;SDS011;52067;50.710;14.492;2023-05-24T08:19:10;10.77;;;2.78;;
65469;SDS011;52067;50.710;14.492;2023-05-24T08:21:35;9.38;;;2.88;;
65469;SDS011;52067;50.710;14.492;2023-05-24T08:24:01;21.67;;;2.92;;
65469;SDS011;52067;50.710;14.492;2023-05-24T08:26:27;14.05;;;3.00;;
65469;SDS011;52067;50.710;14.492;2023-05-24T08:28:52;11.45;;;3.08;;
65469;SDS011;52067;50.710;14.492;2023-05-24T08:31:18;15.38;;;3.03;;
65469;SDS011;52067;50.710;14.492;2023-05-24T08:33:44;9.98;;;3.13;;
65469;SDS011;52067;50.710;14.492;2023-05-24T08:36:14;10.45;;;3.35;;
65469;SDS011;52067;50.710;14.492;2023-05-24T08:38:40;14.65;;;3.80;;
65469;SDS011;52067;50.710;14.492;2023-05-24T08:41:05;13.23;;;3.10;;
65469;SDS011;52067;50.710;14.492;2023-05-24T08:43:32;8.68;;;2.53;;
65469;SDS011;52067;50.710;14.492;2023-05-24T08:45:57;11.30;;;3.28;;
65469;SDS011;52067;50.710;14.492;2023-05-24T08:48:25;13.57;;;3.40;;
65469;SDS011;52067;50.710;14.492;2023-05-24T08:50:52;13.98;;;3.63;;
65469;SDS011;52067;50.710;14.492;2023-05-24T08:53:18;11.75;;;3.20;;
65469;SDS011;52067;50.710;14.492;2023-05-24T08:55:46;15.90;;;3.90;;
65469;SDS011;52067;50.710;14.492;2023-05-24T08:58:13;6.97;;;2.53;;
65469;SDS011;52067;50.710;14.492;2023-05-24T09:00:40;12.82;;;3.58;;
65469;SDS011;52067;50.710;14.492;2023-05-24T09:03:06;12.90;;;3.10;;
65469;SDS011;52067;50.710;14.492;2023-05-24T09:05:32;15.15;;;3.42;;
65469;SDS011;52067;50.710;14.492;2023-05-24T09:07:58;11.30;;;3.17;;
65469;SDS011;52067;50.710;14.492;2023-05-24T09:10:25;11.68;;;2.85;;
65469;SDS011;52067;50.710;14.492;2023-05-24T09:12:56;8.35;;;2.53;;
65469;SDS011;52067;50.710;14.492;2023-05-24T09:15:22;17.40;;;3.25;;
65469;SDS011;52067;50.710;14.492;2023-05-24T09:17:48;14.82;;;3.08;;
65469;SDS011;52067;50.710;14.492;2023-05-24T09:20:13;10.60;;;2.80;;
65469;SDS011;52067;50.710;14.492;2023-05-24T09:22:42;8.75;;;3.13;;
65469;SDS011;52067;50.710;14.492;2023-05-24T09:25:08;8.30;;;2.85;;
65469;SDS011;52067;50.710;14.492;2023-05-24T09:27:35;12.95;;;3.00;;
65469;SDS011;52067;50.710;14.492;2023-05-24T09:30:01;9.68;;;2.75;;
65469;SDS011;52067;50.710;14.492;2023-05-24T09:32:29;8.20;;;3.00;;
65469;SDS011;52067;50.710;14.492;2023-05-24T09:34:56;10.95;;;3.30;;
65469;SDS011;52067;50.710;14.492;2023-05-24T09:37:22;11.88;;;3.30;;
65469;SDS011;52067;50.710;14.492;2023-05-24T09:39:51;12.88;;;3.22;;
65469;SDS011;52067;50.710;14.492;2023-05-24T09:42:18;7.43;;;2.92;;
65469;SDS011;52067;50.710;14.492;2023-05-24T09:44:48;14.18;;;2.88;;
65469;SDS011;52067;50.710;14.492;2023-05-24T09:47:26;17.60;;;2.97;;
65469;SDS011;52067;50.710;14.492;2023-05-24T09:49:53;14.52;;;3.03;;
65469;SDS011;52067;50.710;14.492;2023-05-24T09:52:18;9.65;;;3.03;;
65469;SDS011;52067;50.710;14.492;2023-05-24T09:54:46;12.32;;;2.88;;
65469;SDS011;52067;50.710;14.492;2023-05-24T09:57:14;8.27;;;3.00;;
65469;SDS011;52067;50.710;14.492;2023-05-24T09:59:41;15.38;;;2.85;;
65469;SDS011;52067;50.710;14.492;2023-05-24T10:02:10;11.82;;;3.30;;
65469;SDS011;52067;50.710;14.492;2023-05-24T10:04:39;11.55;;;2.92;;
65469;SDS011;52067;50.710;14.492;2023-05-24T10:07:06;15.55;;;3.45;;
65469;SDS011;52067;50.710;14.492;2023-05-24T10:09:32;12.77;;;3.40;;
65469;SDS011;52067;50.710;14.492;2023-05-24T10:12:02;12.48;;;2.92;;
65469;SDS011;52067;50.710;14.492;2023-05-24T10:14:33;8.93;;;3.20;;
65469;SDS011;52067;50.710;14.492;2023-05-24T10:17:01;12.15;;;3.83;;
65469;SDS011;52067;50.710;14.492;2023-05-24T10:19:28;11.68;;;3.30;;
65469;SDS011;52067;50.710;14.492;2023-05-24T10:21:54;13.18;;;3.10;;
65469;SDS011;52067;50.710;14.492;2023-05-24T10:24:22;9.45;;;2.97;;
65469;SDS011;52067;50.710;14.492;2023-05-24T10:26:51;11.40;;;3.10;;
65469;SDS011;52067;50.710;14.492;2023-05-24T10:29:32;9.38;;;3.47;;
65469;SDS011;52067;50.710;14.492;2023-05-24T10:32:05;10.18;;;3.20;;
65469;SDS011;52067;50.710;14.492;2023-05-24T10:34:32;12.40;;;3.58;;
65469;SDS011;52067;50.710;14.492;2023-05-24T10:36:58;8.77;;;2.42;;
65469;SDS011;52067;50.710;14.492;2023-05-24T10:39:24;11.85;;;3.80;;
65469;SDS011;52067;50.710;14.492;2023-05-24T10:41:49;15.07;;;3.42;;
65469;SDS011;52067;50.710;14.492;2023-05-24T10:44:17;13.75;;;2.95;;
65469;SDS011;52067;50.710;14.492;2023-05-24T10:47:05;14.43;;;3.15;;
65469;SDS011;52067;50.710;14.492;2023-05-24T10:49:38;11.07;;;2.78;;
65469;SDS011;52067;50.710;14.492;2023-05-24T10:52:12;14.50;;;3.47;;
65469;SDS011;52067;50.710;14.492;2023-05-24T10:54:38;9.63;;;3.03;;
65469;SDS011;52067;50.710;14.492;2023-05-24T10:57:05;17.33;;;3.30;;
65469;SDS011;52067;50.710;14.492;2023-05-24T11:02:08;10.63;;;3.60;;
65469;SDS011;52067;50.710;14.492;2023-05-24T11:04:41;11.95;;;3.45;;
65469;SDS011;52067;50.710;14.492;2023-05-24T11:07:11;10.55;;;3.40;;
65469;SDS011;52067;50.710;14.492;2023-05-24T11:09:38;11.93;;;3.25;;
65469;SDS011;52067;50.710;14.492;2023-05-24T11:12:14;11.15;;;3.35;;
65469;SDS011;52067;50.710;14.492;2023-05-24T11:14:46;13.88;;;3.72;;
65469;SDS011;52067;50.710;14.492;2023-05-24T11:17:13;13.02;;;3.90;;
65469;SDS011;52067;50.710;14.492;2023-05-24T11:19:46;14.60;;;3.80;;
65469;SDS011;52067;50.710;14.492;2023-05-24T11:22:13;12.20;;;3.75;;
65469;SDS011;52067;50.710;14.492;2023-05-24T11:24:39;9.25;;;2.83;;
65469;SDS011;52067;50.710;14.492;2023-05-24T11:27:05;13.13;;;3.83;;
65469;SDS011;52067;50.710;14.492;2023-05-24T11:29:31;10.55;;;2.85;;
65469;SDS011;52067;50.710;14.492;2023-05-24T11:31:57;13.48;;;4.03;;
65469;SDS011;52067;50.710;14.492;2023-05-24T11:34:28;16.00;;;4.00;;
65469;SDS011;52067;50.710;14.492;2023-05-24T11:36:54;15.10;;;4.00;;
65469;SDS011;52067;50.710;14.492;2023-05-24T11:39:20;17.38;;;4.45;;
65469;SDS011;52067;50.710;14.492;2023-05-24T11:41:47;15.70;;;4.10;;
65469;SDS011;52067;50.710;14.492;2023-05-24T11:44:15;12.02;;;3.63;;
65469;SDS011;52067;50.710;14.492;2023-05-24T11:46:43;13.88;;;4.43;;
65469;SDS011;52067;50.710;14.492;2023-05-24T11:49:13;12.38;;;3.92;;
65469;SDS011;52067;50.710;14.492;2023-05-24T11:51:39;12.23;;;3.47;;
65469;SDS011;52067;50.710;14.492;2023-05-24T11:54:05;9.18;;;3.15;;
65469;SDS011;52067;50.710;14.492;2023-05-24T11:56:35;19.15;;;4.07;;
65469;SDS011;52067;50.710;14.492;2023-05-24T11:59:13;9.82;;;3.33;;
65469;SDS011;52067;50.710;14.492;2023-05-24T12:01:40;12.95;;;3.75;;
65469;SDS011;52067;50.710;14.492;2023-05-24T12:04:06;13.85;;;3.60;;
65469;SDS011;52067;50.710;14.492;2023-05-24T12:06:40;10.70;;;3.78;;
65469;SDS011;52067;50.710;14.492;2023-05-24T12:09:07;10.10;;;3.17;;
65469;SDS011;52067;50.710;14.492;2023-05-24T12:11:40;14.55;;;3.72;;
65469;SDS011;52067;50.710;14.492;2023-05-24T12:14:10;11.10;;;3.58;;
65469;SDS011;52067;50.710;14.492;2023-05-24T12:16:37;14.18;;;3.38;;
65469;SDS011;52067;50.710;14.492;2023-05-24T12:19:03;10.95;;;3.30;;
65469;SDS011;52067;50.710;14.492;2023-05-24T12:21:29;13.43;;;3.60;;
65469;SDS011;52067;50.710;14.492;2023-05-24T12:23:55;12.50;;;4.20;;
65469;SDS011;52067;50.710;14.492;2023-05-24T12:26:21;10.90;;;3.75;;
65469;SDS011;52067;50.710;14.492;2023-05-24T12:28:47;8.52;;;3.03;;
65469;SDS011;52067;50.710;14.492;2023-05-24T12:31:18;14.35;;;3.55;;
65469;SDS011;52067;50.710;14.492;2023-05-24T12:33:44;10.55;;;3.30;;
65469;SDS011;52067;50.710;14.492;2023-05-24T12:36:09;11.73;;;3.65;;
65469;SDS011;52067;50.710;14.492;2023-05-24T12:38:35;9.70;;;2.80;;
65469;SDS011;52067;50.710;14.492;2023-05-24T12:41:01;9.68;;;3.30;;
65469;SDS011;52067;50.710;14.492;2023-05-24T12:43:26;14.45;;;3.80;;
65469;SDS011;52067;50.710;14.492;2023-05-24T12:45:51;13.45;;;3.20;;
65469;SDS011;52067;50.710;14.492;2023-05-24T12:48:17;14.60;;;3.30;;
65469;SDS011;52067;50.710;14.492;2023-05-24T12:50:42;15.75;;;3.83;;
65469;SDS011;52067;50.710;14.492;2023-05-24T12:53:08;9.50;;;3.22;;
65469;SDS011;52067;50.710;14.492;2023-05-24T12:55:34;13.07;;;3.70;;
65469;SDS011;52067;50.710;14.492;2023-05-24T12:57:59;8.73;;;2.97;;
65469;SDS011;52067;50.710;14.492;2023-05-24T13:00:26;13.38;;;3.92;;
65469;SDS011;52067;50.710;14.492;2023-05-24T13:02:53;10.00;;;3.35;;
65469;SDS011;52067;50.710;14.492;2023-05-24T13:05:26;16.90;;;3.95;;
65469;SDS011;52067;50.710;14.492;2023-05-24T13:07:52;11.85;;;3.47;;
65469;SDS011;52067;50.710;14.492;2023-05-24T13:10:20;12.60;;;3.45;;
65469;SDS011;52067;50.710;14.492;2023-05-24T13:12:45;14.45;;;3.58;;
65469;SDS011;52067;50.710;14.492;2023-05-24T13:15:11;10.82;;;3.50;;
65469;SDS011;52067;50.710;14.492;2023-05-24T13:17:37;13.45;;;3.30;;
65469;SDS011;52067;50.710;14.492;2023-05-24T13:20:04;11.07;;;3.70;;
65469;SDS011;52067;50.710;14.492;2023-05-24T13:22:32;12.27;;;3.78;;
65469;SDS011;52067;50.710;14.492;2023-05-24T13:24:58;13.85;;;3.97;;
65469;SDS011;52067;50.710;14.492;2023-05-24T13:27:23;13.25;;;3.35;;
65469;SDS011;52067;50.710;14.492;2023-05-24T13:29:49;12.65;;;3.50;;
65469;SDS011;52067;50.710;14.492;2023-05-24T13:32:14;11.27;;;3.45;;
65469;SDS011;52067;50.710;14.492;2023-05-24T13:34:40;14.60;;;3.45;;
65469;SDS011;52067;50.710;14.492;2023-05-24T13:37:06;11.55;;;3.65;;
65469;SDS011;52067;50.710;14.492;2023-05-24T13:39:31;12.95;;;3.70;;
65469;SDS011;52067;50.710;14.492;2023-05-24T13:41:57;13.90;;;3.90;;
65469;SDS011;52067;50.710;14.492;2023-05-24T13:44:24;10.50;;;3.88;;
65469;SDS011;52067;50.710;14.492;2023-05-24T13:46:50;16.30;;;3.90;;
65469;SDS011;52067;50.710;14.492;2023-05-24T13:49:16;10.82;;;3.63;;
65469;SDS011;52067;50.710;14.492;2023-05-24T13:51:41;10.85;;;3.35;;
65469;SDS011;52067;50.710;14.492;2023-05-24T13:54:07;13.25;;;3.75;;
65469;SDS011;52067;50.710;14.492;2023-05-24T13:56:33;12.65;;;3.40;;
65469;SDS011;52067;50.710;14.492;2023-05-24T13:59:02;10.85;;;3.47;;
65469;SDS011;52067;50.710;14.492;2023-05-24T14:01:28;9.73;;;3.40;;
65469;SDS011;52067;50.710;14.492;2023-05-24T14:03:54;15.13;;;3.92;;
65469;SDS011;52067;50.710;14.492;2023-05-24T14:06:19;10.73;;;3.65;;
65469;SDS011;52067;50.710;14.492;2023-05-24T14:08:45;11.40;;;3.42;;
65469;SDS011;52067;50.710;14.492;2023-05-24T14:11:11;16.10;;;3.50;;
65469;SDS011;52067;50.710;14.492;2023-05-24T14:13:38;14.20;;;3.75;;
65469;SDS011;52067;50.710;14.492;2023-05-24T14:16:05;16.02;;;3.63;;
65469;SDS011;52067;50.710;14.492;2023-05-24T14:18:31;10.57;;;3.67;;
65469;SDS011;52067;50.710;14.492;2023-05-24T14:20:56;37.15;;;6.15;;
65469;SDS011;52067;50.710;14.492;2023-05-24T14:23:22;13.57;;;3.65;;
65469;SDS011;52067;50.710;14.492;2023-05-24T14:25:47;12.35;;;3.47;;
65469;SDS011;52067;50.710;14.492;2023-05-24T14:28:14;18.13;;;3.83;;
65469;SDS011;52067;50.710;14.492;2023-05-24T14:30:39;14.02;;;3.97;;
65469;SDS011;52067;50.710;14.492;2023-05-24T14:33:05;13.50;;;4.10;;
65469;SDS011;52067;50.710;14.492;2023-05-24T14:35:31;14.40;;;3.60;;
65469;SDS011;52067;50.710;14.492;2023-05-24T14:38:03;10.73;;;3.70;;
65469;SDS011;52067;50.710;14.492;2023-05-24T14:40:32;15.38;;;3.88;;